Time;durP1;ratioP1;P1;durP2;ratioP2;P2;SDS_P1;SDS_P2;PMS_P1;PMS_P2;Temp;Humidity;BMP_temperature;BMP_pressure;BME280_temperature;BME280_humidity;BME280_pressure;Samples;Min_cycle;Max_cycle;Signal;HPM_P1;HPM_P2
2022/01/20 00:01:50;;;;;;;26.85;7.00;;;;;;;7.10;65.09;102474.94;5162553;28;20506;-48
2022/01/20 00:04:28;;;;;;;24.52;5.97;;;;;;;7.15;64.97;102474.66;5166269;28;20428;-47
2022/01/20 00:07:26;;;;;;;20.45;6.00;;;;;;;7.20;65.17;102488.38;5166021;28;20420;-48
2022/01/20 00:26:54;;;;;;;33.38;7.32;;;;;;;7.26;65.02;102490.66;5167968;28;20427;-46
2022/01/20 00:29:30;;;;;;;30.27;6.50;;;;;;;7.19;65.01;102483.22;5154462;28;20436;-54
2022/01/20 00:32:09;;;;;;;27.08;7.20;;;;;;;7.23;64.76;102492.63;5153433;28;20412;-45
2022/01/20 00:35:12;;;;;;;26.88;6.57;;;;;;;7.20;64.85;102488.38;5148458;28;20416;-50
2022/01/20 00:37:43;;;;;;;24.23;6.53;;;;;;;7.07;64.99;102482.13;5160274;28;21754;-46
2022/01/20 00:40:18;;;;;;;36.05;9.25;;;;;;;7.13;64.78;102497.56;5160552;28;20437;-46
2022/01/20 00:42:50;;;;;;;30.10;6.97;;;;;;;6.90;64.87;102460.28;5158210;28;20549;-46
2022/01/20 00:45:23;;;;;;;35.65;8.55;;;;;;;7.14;64.87;102491.34;5173576;28;20427;-47
2022/01/20 00:47:55;;;;;;;35.75;9.35;;;;;;;7.14;65.01;102504.50;5168650;28;20432;-47
2022/01/20 00:50:28;;;;;;;32.58;7.90;;;;;;;7.14;64.95;102499.25;5166463;28;20414;-50
2022/01/20 00:53:00;;;;;;;32.17;9.00;;;;;;;7.12;64.95;102501.09;5175481;28;20417;-44
2022/01/20 00:55:34;;;;;;;27.95;6.75;;;;;;;7.13;64.95;102502.81;5158814;28;20872;-46
2022/01/20 00:58:07;;;;;;;32.33;7.25;;;;;;;7.13;65.08;102497.56;5170086;28;20417;-44
2022/01/20 01:00:40;;;;;;;37.70;6.90;;;;;;;7.16;64.90;102502.63;5178632;28;20410;-57
2022/01/20 01:03:12;;;;;;;33.77;7.63;;;;;;;7.20;65.07;102509.41;5157476;28;20533;-46
2022/01/20 01:05:58;;;;;;;26.05;6.85;;;;;;;7.22;65.03;102490.94;5176925;28;20697;-47
2022/01/20 01:08:32;;;;;;;32.85;8.13;;;;;;;7.33;64.92;102520.06;5163817;28;20523;-45
2022/01/20 01:11:05;;;;;;;28.15;7.25;;;;;;;7.37;64.93;102532.97;5172525;28;20428;-48
2022/01/20 01:13:38;;;;;;;28.20;6.43;;;;;;;7.36;64.87;102528.63;5176808;28;20486;-46
2022/01/20 01:16:12;;;;;;;25.58;6.53;;;;;;;7.28;64.98;102515.09;5173955;28;20547;-46
2022/01/20 01:21:43;;;;;;;24.30;6.90;;;;;;;7.14;65.04;102525.50;5182434;28;20395;-47
2022/01/20 01:24:16;;;;;;;23.17;5.55;;;;;;;7.07;65.33;102522.38;5163148;28;20432;-46
2022/01/20 01:26:50;;;;;;;21.52;5.65;;;;;;;6.88;65.23;102493.66;5153575;28;20615;-52
2022/01/20 01:29:37;;;;;;;26.38;5.75;;;;;;;6.90;65.12;102490.94;5196000;28;20440;-48
2022/01/20 01:32:12;;;;;;;25.75;5.80;;;;;;;6.98;65.29;102508.91;5140258;28;20421;-46
2022/01/20 01:34:49;;;;;;;23.70;6.28;;;;;;;6.98;65.32;102514.19;5167088;28;20482;-46
2022/01/20 01:38:22;;;;;;;23.95;6.00;;;;;;;6.92;65.29;102518.81;5177614;28;20431;-47
2022/01/20 01:40:18;;;;;;;23.38;6.38;;;;;;;6.92;65.27;102523.22;5173546;28;20405;-55
2022/01/20 01:42:52;;;;;;;27.35;6.32;;;;;;;6.86;65.30;102516.53;5168710;28;20433;-46
2022/01/20 01:45:28;;;;;;;24.15;7.40;;;;;;;6.91;65.34;102530.28;5176763;28;21906;-46
2022/01/20 01:48:01;;;;;;;20.73;6.18;;;;;;;6.93;65.19;102533.63;5140820;28;20442;-48
2022/01/20 01:50:34;;;;;;;20.20;5.43;;;;;;;6.92;65.28;102537.22;5171044;28;20427;-49
2022/01/20 01:53:08;;;;;;;18.77;4.72;;;;;;;6.88;65.32;102546.19;5164500;28;20420;-48
2022/01/20 01:55:41;;;;;;;17.20;4.47;;;;;;;6.89;65.33;102518.16;5168769;28;20543;-49
2022/01/20 01:58:15;;;;;;;20.90;4.13;;;;;;;6.54;65.53;102480.72;5171164;28;20425;-46
2022/01/20 02:00:47;;;;;;;13.77;4.05;;;;;;;6.76;65.40;102520.59;5177989;28;20847;-47
2022/01/20 02:03:20;;;;;;;17.25;4.18;;;;;;;6.74;65.41;102534.75;5183470;28;20419;-50
2022/01/20 02:06:13;;;;;;;19.38;6.13;;;;;;;6.68;65.39;102523.63;5183606;28;20498;-46
2022/01/20 02:08:56;;;;;;;20.73;5.95;;;;;;;6.30;65.45;102481.09;5165376;28;20498;-53
2022/01/20 02:20:00;;;;;;;27.07;7.37;;;;;;;6.51;65.57;102543.88;5177989;28;20470;-52
2022/01/20 02:22:32;;;;;;;27.50;6.72;;;;;;;6.54;65.58;102546.34;5188315;28;20444;-48
2022/01/20 02:25:06;;;;;;;25.58;6.32;;;;;;;6.51;65.54;102536.00;5178328;28;20953;-50
2022/01/20 02:27:38;;;;;;;25.75;5.88;;;;;;;6.61;65.41;102542.44;5190898;28;21018;-48
2022/01/20 02:30:12;;;;;;;25.50;5.57;;;;;;;6.62;65.32;102533.63;5185163;28;20481;-45
2022/01/20 02:32:53;;;;;;;17.92;4.72;;;;;;;6.59;65.36;102536.41;5178104;28;20436;-51
2022/01/20 02:35:32;;;;;;;30.73;6.15;;;;;;;6.37;65.41;102502.59;5180291;28;20413;-48
2022/01/20 02:38:10;;;;;;;16.77;4.43;;;;;;;6.60;65.53;102546.00;5171129;28;20420;-47
2022/01/20 02:46:28;;;;;;;27.35;6.75;;;;;;;6.58;65.50;102530.31;5173153;28;20961;-44
2022/01/20 02:49:01;;;;;;;25.17;4.80;;;;;;;6.61;65.63;102537.19;5181360;28;20924;-47
2022/01/20 02:51:35;;;;;;;26.33;6.03;;;;;;;6.63;65.54;102540.59;5165213;28;20492;-45
2022/01/20 02:54:12;;;;;;;26.95;6.25;;;;;;;6.69;65.75;102556.00;5175377;28;20430;-53
2022/01/20 02:56:48;;;;;;;21.05;5.57;;;;;;;6.76;65.40;102562.63;5185099;28;20503;-54
2022/01/20 02:59:20;;;;;;;26.53;6.77;;;;;;;6.77;65.61;102563.47;5184651;28;20510;-45
2022/01/20 03:01:53;;;;;;;17.75;4.82;;;;;;;6.64;65.72;102537.03;5183016;28;20437;-49
2022/01/20 03:04:26;;;;;;;27.95;5.50;;;;;;;6.78;65.70;102563.41;5183925;28;20952;-47
2022/01/20 03:07:00;;;;;;;22.85;5.15;;;;;;;6.80;65.68;102569.41;5186396;28;20477;-52
2022/01/20 03:09:33;;;;;;;27.42;5.95;;;;;;;6.81;65.52;102573.69;5186079;28;20418;-47
2022/01/20 03:12:07;;;;;;;28.33;6.07;;;;;;;6.75;65.54;102563.56;5180727;28;20524;-51
2022/01/20 03:14:39;;;;;;;28.65;6.40;;;;;;;6.76;65.55;102575.75;5182309;28;20722;-46
2022/01/20 03:17:14;;;;;;;21.73;6.13;;;;;;;6.74;65.54;102566.25;5177675;28;20409;-47
2022/01/20 03:19:46;;;;;;;21.13;6.30;;;;;;;6.70;65.78;102573.44;5178943;28;20418;-45
2022/01/20 03:22:20;;;;;;;18.42;6.50;;;;;;;6.66;65.75;102574.56;5188035;28;20436;-55
2022/01/20 03:24:53;;;;;;;13.95;5.85;;;;;;;6.62;65.51;102575.63;5173113;28;20502;-48
2022/01/20 03:27:28;;;;;;;24.67;6.35;;;;;;;6.59;65.71;102576.63;5179791;28;20472;-47
2022/01/20 03:30:01;;;;;;;19.30;5.47;;;;;;;6.54;65.77;102577.81;5186764;28;20493;-47
2022/01/20 03:32:34;;;;;;;20.33;5.80;;;;;;;6.59;65.83;102583.66;5178002;28;20499;-48
2022/01/20 03:35:08;;;;;;;27.33;5.85;;;;;;;6.63;65.88;102582.59;5167942;28;20409;-49
2022/01/20 03:37:42;;;;;;;13.65;4.50;;;;;;;6.65;65.77;102588.59;5183417;28;20768;-44
2022/01/20 03:40:15;;;;;;;31.10;5.43;;;;;;;6.65;65.79;102585.97;5184374;28;20422;-46
2022/01/20 03:42:47;;;;;;;28.60;5.57;;;;;;;6.66;65.73;102592.94;5181380;28;20867;-46
2022/01/20 03:45:24;;;;;;;19.13;5.53;;;;;;;6.67;65.98;102589.38;5177611;28;20921;-46
2022/01/20 03:48:06;;;;;;;16.17;4.50;;;;;;;6.64;65.82;102626.28;5180425;28;20407;-47
2022/01/20 03:53:33;;;;;;;20.00;5.50;;;;;;;6.47;66.34;102637.66;5186318;28;22465;-48
2022/01/20 03:56:09;;;;;;;15.73;4.38;;;;;;;6.34;66.31;102608.56;5182714;28;20427;-47
2022/01/20 03:58:42;;;;;;;15.45;4.53;;;;;;;6.27;66.48;102632.59;5186927;28;20965;-45
2022/01/20 04:01:15;;;;;;;19.10;5.05;;;;;;;6.20;66.24;102626.81;5184846;28;20517;-45
2022/01/20 04:03:48;;;;;;;27.00;6.77;;;;;;;6.15;66.21;102620.94;5175741;28;20451;-55
2022/01/20 04:06:22;;;;;;;24.08;6.82;;;;;;;6.16;66.24;102620.00;5165567;28;20416;-49
2022/01/20 04:08:56;;;;;;;19.50;6.63;;;;;;;6.10;66.17;102620.31;5171665;28;24011;-45
2022/01/20 04:11:29;;;;;;;26.00;6.83;;;;;;;6.13;66.16;102620.16;5169933;28;20428;-48
2022/01/20 04:14:03;;;;;;;25.60;7.60;;;;;;;6.16;66.16;102625.25;5164894;28;20496;-45
2022/01/20 04:16:51;;;;;;;34.08;7.97;;;;;;;6.18;66.15;102639.97;5160661;28;20436;-47
2022/01/20 04:19:28;;;;;;;37.47;8.77;;;;;;;6.23;66.00;102645.00;5180206;28;20421;-50
2022/01/20 04:22:01;;;;;;;23.90;6.43;;;;;;;6.24;65.97;102644.06;5172235;28;20503;-46
2022/01/20 04:24:37;;;;;;;29.60;7.93;;;;;;;6.18;66.13;102649.63;5184815;28;20477;-50
2022/01/20 04:27:09;;;;;;;26.73;7.35;;;;;;;6.13;66.23;102660.38;5169421;28;20495;-46
2022/01/20 04:29:42;;;;;;;35.08;8.50;;;;;;;6.17;66.11;102663.69;5169157;28;20435;-53
2022/01/20 04:32:14;;;;;;;32.17;7.78;;;;;;;6.18;66.19;102657.50;5165014;28;20498;-45
2022/01/20 04:34:49;;;;;;;36.25;8.55;;;;;;;6.19;66.22;102661.81;5142572;28;20421;-46
2022/01/20 04:37:21;;;;;;;34.05;8.25;;;;;;;6.14;66.10;102661.22;5169502;28;20432;-50
2022/01/20 04:39:56;;;;;;;35.03;8.82;;;;;;;6.19;65.99;102672.31;5160870;28;20466;-48
2022/01/20 04:42:34;;;;;;;43.83;8.50;;;;;;;6.19;66.00;102693.28;5173962;28;20436;-45
2022/01/20 04:45:12;;;;;;;28.02;7.60;;;;;;;6.19;65.88;102672.31;5171885;28;21040;-47
2022/01/20 04:47:50;;;;;;;23.20;7.55;;;;;;;6.21;65.81;102680.97;5169002;28;20432;-49
2022/01/20 04:58:55;;;;;;;26.30;7.47;;;;;;;6.18;65.86;102694.22;5179894;28;20876;-48
2022/01/20 05:01:27;;;;;;;23.27;6.07;;;;;;;6.19;65.82;102690.66;5178710;28;20563;-45
2022/01/20 05:04:02;;;;;;;26.55;7.43;;;;;;;6.16;65.96;102690.81;5179690;28;20420;-45
2022/01/20 05:06:38;;;;;;;24.30;6.93;;;;;;;6.20;65.60;102700.25;5194129;28;20501;-45
2022/01/20 05:09:17;;;;;;;20.00;6.07;;;;;;;6.21;65.77;102704.56;5165212;28;20431;-45
2022/01/20 05:11:59;;;;;;;26.00;7.80;;;;;;;6.19;65.93;102706.41;5181995;28;20413;-60
2022/01/20 05:14:32;;;;;;;29.73;7.85;;;;;;;5.77;65.68;102653.34;5181858;28;22377;-48
2022/01/20 05:17:05;;;;;;;20.17;5.55;;;;;;;6.21;65.66;102717.69;5181597;28;20401;-47
2022/01/20 05:19:37;;;;;;;21.98;7.00;;;;;;;6.21;65.48;102707.19;5169050;28;20500;-45
2022/01/20 05:22:10;;;;;;;26.00;6.70;;;;;;;6.19;65.65;102723.03;5176044;28;20525;-46
2022/01/20 05:24:42;;;;;;;23.40;6.15;;;;;;;6.18;65.54;102715.22;5178541;28;20507;-50
2022/01/20 05:27:16;;;;;;;24.55;6.85;;;;;;;6.16;65.63;102722.31;5170130;28;20449;-46
2022/01/20 05:29:48;;;;;;;25.08;6.28;;;;;;;6.15;65.65;102738.97;5183586;28;20452;-48
2022/01/20 05:32:20;;;;;;;26.33;7.35;;;;;;;6.14;65.40;102732.03;5177687;28;20429;-49
2022/01/20 05:34:53;;;;;;;30.40;7.10;;;;;;;6.09;65.52;102731.41;5167179;28;20412;-47
2022/01/20 05:37:25;;;;;;;23.20;5.30;;;;;;;6.14;65.72;102753.88;5175968;28;20529;-51
2022/01/20 05:39:58;;;;;;;23.52;6.40;;;;;;;6.12;65.31;102741.75;5171193;28;20430;-46
2022/01/20 05:42:31;;;;;;;25.33;7.10;;;;;;;6.05;65.14;102740.34;5171583;28;20481;-49
2022/01/20 05:45:06;;;;;;;19.33;6.90;;;;;;;6.12;65.25;102745.22;5187746;28;20480;-46
2022/01/20 05:47:44;;;;;;;20.90;6.47;;;;;;;6.12;65.21;102744.38;5186363;28;20426;-50
2022/01/20 05:50:20;;;;;;;20.40;6.00;;;;;;;6.14;64.95;102758.28;5174833;28;20919;-49
2022/01/20 05:52:52;;;;;;;18.20;5.70;;;;;;;6.05;65.04;102737.75;5185105;28;20416;-50
2022/01/20 05:55:25;;;;;;;27.07;6.23;;;;;;;6.11;65.24;102763.66;5179223;28;24803;-46
2022/01/20 05:57:59;;;;;;;23.67;7.18;;;;;;;6.10;65.04;102768.06;5170032;28;20413;-45
2022/01/20 06:00:31;;;;;;;17.38;5.07;;;;;;;6.12;65.03;102765.34;5180279;28;20439;-46
2022/01/20 06:05:54;;;;;;;24.83;6.30;;;;;;;6.06;64.86;102752.53;5153723;28;20429;-46
2022/01/20 06:08:27;;;;;;;24.27;6.40;;;;;;;6.11;65.05;102763.66;5139967;28;20416;-45
2022/01/20 06:10:59;;;;;;;24.88;4.90;;;;;;;6.09;65.04;102771.59;5164907;28;20452;-49
2022/01/20 06:13:33;;;;;;;28.48;7.45;;;;;;;6.05;65.08;102772.69;5185457;28;20825;-50
2022/01/20 06:16:07;;;;;;;26.70;6.15;;;;;;;6.00;64.79;102767.63;5181899;28;20465;-46
2022/01/20 06:18:39;;;;;;;21.75;5.70;;;;;;;5.98;65.07;102780.00;5181109;28;20825;-48
2022/01/20 06:21:11;;;;;;;25.20;6.15;;;;;;;5.92;64.94;102792.50;5188762;28;20789;-49
2022/01/20 06:23:44;;;;;;;24.05;7.47;;;;;;;5.89;64.98;102779.53;5173698;28;20437;-44
2022/01/20 06:26:17;;;;;;;29.95;8.65;;;;;;;5.86;65.16;102777.91;5167177;28;20877;-48
2022/01/20 06:28:50;;;;;;;26.20;6.60;;;;;;;5.86;64.98;102772.66;5181249;28;20429;-47
2022/01/20 06:31:23;;;;;;;26.35;7.20;;;;;;;5.83;64.94;102780.69;5178373;28;20439;-45
2022/01/20 06:33:55;;;;;;;32.42;7.10;;;;;;;5.77;64.94;102770.47;5182711;28;20895;-46
2022/01/20 06:36:28;;;;;;;28.33;6.63;;;;;;;5.82;64.77;102778.94;5185291;28;20498;-44
2022/01/20 06:39:00;;;;;;;25.88;6.82;;;;;;;5.82;64.63;102789.44;5192661;28;20946;-46
2022/01/20 06:41:37;;;;;;;30.88;6.88;;;;;;;5.80;64.66;102786.06;5189570;28;20438;-55
2022/01/20 06:44:29;;;;;;;21.83;6.00;;;;;;;5.81;64.67;102786.91;5200550;28;20747;-49
2022/01/20 06:47:02;;;;;;;18.10;5.57;;;;;;;5.74;64.89;102799.44;5197415;28;20421;-47
2022/01/20 06:49:34;;;;;;;18.42;5.07;;;;;;;5.72;64.91;102799.50;5205929;28;20425;-48
2022/01/20 06:52:07;;;;;;;17.83;5.97;;;;;;;5.68;64.85;102812.84;5182902;28;20794;-50
2022/01/20 06:54:40;;;;;;;22.63;5.60;;;;;;;5.70;64.88;102821.50;5193976;28;20423;-47
2022/01/20 06:57:12;;;;;;;22.83;6.72;;;;;;;5.68;64.90;102828.56;5188202;28;20468;-50
2022/01/20 06:59:46;;;;;;;18.27;4.75;;;;;;;5.67;64.89;102834.75;5193964;28;20419;-46
2022/01/20 07:02:19;;;;;;;20.83;6.15;;;;;;;5.59;64.96;102815.88;5195562;28;20519;-45
2022/01/20 07:04:51;;;;;;;27.63;6.90;;;;;;;5.63;64.84;102822.66;5182309;28;20454;-47
2022/01/20 07:07:24;;;;;;;16.15;5.43;;;;;;;5.66;64.95;102826.00;5181287;28;20912;-48
2022/01/20 07:09:56;;;;;;;31.73;6.95;;;;;;;5.58;64.67;102812.41;5167364;28;20551;-47
2022/01/20 07:12:28;;;;;;;25.45;7.53;;;;;;;5.64;64.51;102822.63;5168225;28;20496;-50
2022/01/20 07:15:03;;;;;;;25.00;7.33;;;;;;;5.58;64.80;102832.53;5179532;28;20580;-49
2022/01/20 07:17:35;;;;;;;20.73;6.53;;;;;;;5.64;64.76;102824.41;5156867;28;20440;-47
2022/01/20 07:20:09;;;;;;;32.38;8.07;;;;;;;5.66;64.96;102840.88;5165259;28;20888;-45
2022/01/20 07:22:42;;;;;;;25.20;6.07;;;;;;;5.67;64.76;102824.25;5157624;28;20862;-48
2022/01/20 07:25:15;;;;;;;25.30;7.50;;;;;;;5.70;64.89;102837.22;5165029;28;20510;-47
2022/01/20 07:27:47;;;;;;;30.65;6.80;;;;;;;5.70;64.78;102840.69;5165115;28;20839;-45
2022/01/20 07:30:21;;;;;;;27.17;7.97;;;;;;;5.73;64.84;102837.94;5155136;28;20425;-48
2022/01/20 07:32:53;;;;;;;32.15;7.45;;;;;;;5.69;64.81;102827.63;5151840;28;20439;-47
2022/01/20 07:35:26;;;;;;;27.58;8.07;;;;;;;5.79;64.82;102836.78;5173490;28;20430;-46
2022/01/20 07:37:58;;;;;;;30.20;7.13;;;;;;;5.74;64.70;102838.78;5155101;28;20417;-48
2022/01/20 07:40:32;;;;;;;27.73;7.82;;;;;;;5.80;64.80;102848.16;5149595;28;20424;-50
2022/01/20 07:43:05;;;;;;;21.95;6.93;;;;;;;5.86;64.68;102856.59;5155997;28;20867;-48
2022/01/20 07:45:39;;;;;;;27.38;7.88;;;;;;;5.89;64.60;102860.84;5164386;28;20407;-48
2022/01/20 07:48:11;;;;;;;23.33;7.05;;;;;;;5.85;64.67;102867.97;5174649;28;20482;-46
2022/01/20 07:50:44;;;;;;;28.67;7.03;;;;;;;5.88;64.85;102870.44;5173105;28;20443;-49
2022/01/20 07:53:16;;;;;;;23.50;6.20;;;;;;;5.91;64.69;102872.09;5181301;28;20441;-50
2022/01/20 07:55:50;;;;;;;27.95;7.20;;;;;;;5.90;64.76;102871.25;5170397;28;20419;-49
2022/01/20 07:58:25;;;;;;;21.23;5.68;;;;;;;5.91;64.59;102867.69;5164112;28;20436;-50
2022/01/20 08:00:58;;;;;;;26.08;6.78;;;;;;;5.90;64.70;102873.03;5167790;28;20428;-48
2022/01/20 08:03:31;;;;;;;28.87;7.53;;;;;;;5.83;64.53;102859.34;5197616;28;20428;-52
2022/01/20 08:06:04;;;;;;;26.17;6.80;;;;;;;5.84;64.59;102865.44;5183354;28;20414;-49
2022/01/20 08:08:36;;;;;;;18.23;5.32;;;;;;;5.87;64.45;102875.78;5144989;28;20518;-49
2022/01/20 08:11:08;;;;;;;18.35;6.43;;;;;;;5.83;64.50;102874.22;5170057;28;20509;-47
2022/01/20 08:13:41;;;;;;;27.02;6.75;;;;;;;5.87;64.35;102884.50;5176495;28;20449;-48
2022/01/20 08:16:15;;;;;;;26.02;6.53;;;;;;;5.89;64.07;102880.03;5169091;28;20893;-50
2022/01/20 08:18:47;;;;;;;22.90;5.60;;;;;;;5.92;64.19;102885.16;5174764;28;20517;-47
2022/01/20 08:21:20;;;;;;;23.40;5.75;;;;;;;5.92;64.31;102882.53;5169158;28;20423;-49
2022/01/20 08:23:52;;;;;;;24.27;6.50;;;;;;;5.92;64.26;102885.16;5164382;28;20420;-45
2022/01/20 08:26:25;;;;;;;21.92;6.22;;;;;;;5.86;64.04;102885.44;5176283;28;20445;-45
2022/01/20 08:28:57;;;;;;;23.15;6.75;;;;;;;5.92;63.98;102906.13;5167708;28;20972;-44
2022/01/20 08:31:32;;;;;;;26.20;6.65;;;;;;;5.90;63.86;102902.72;5157414;28;20423;-47
2022/01/20 08:34:07;;;;;;;23.27;5.90;;;;;;;5.90;63.73;102902.72;5184132;28;20430;-49
2022/01/20 08:36:40;;;;;;;18.73;5.43;;;;;;;5.87;63.89;102897.59;5179080;28;20912;-47
2022/01/20 08:42:09;;;;;;;23.48;6.45;;;;;;;5.82;63.74;102910.06;5180749;28;20805;-48
2022/01/20 08:44:42;;;;;;;13.07;5.15;;;;;;;5.98;63.88;102926.88;5178343;28;20419;-46
2022/01/20 08:47:20;;;;;;;18.58;4.82;;;;;;;6.07;63.73;102924.72;5164122;28;20505;-45
2022/01/20 08:49:53;;;;;;;14.73;4.22;;;;;;;6.15;63.71;102927.88;5169530;28;20422;-47
2022/01/20 08:52:28;;;;;;;11.25;3.70;;;;;;;6.15;63.54;102926.09;5179794;28;20759;-46
2022/01/20 08:55:01;;;;;;;15.23;4.38;;;;;;;6.20;63.60;102937.25;5186731;28;20754;-47
2022/01/20 08:57:34;;;;;;;15.40;4.45;;;;;;;6.26;63.47;102944.00;5153950;28;20438;-45
2022/01/20 09:00:09;;;;;;;21.37;5.80;;;;;;;6.29;63.46;102956.97;5176669;28;20480;-51
2022/01/20 09:02:43;;;;;;;26.55;5.18;;;;;;;6.39;63.40;102946.91;5184878;28;20434;-47
2022/01/20 09:05:15;;;;;;;24.08;5.45;;;;;;;6.49;63.35;102936.81;5201242;28;20423;-45
2022/01/20 09:07:48;;;;;;;14.38;5.15;;;;;;;6.50;63.17;102943.75;5180448;28;20421;-49
2022/01/20 09:10:21;;;;;;;19.88;5.30;;;;;;;6.54;63.16;102940.94;5192681;28;20548;-46
2022/01/20 09:15:45;;;;;;;15.48;4.45;;;;;;;6.63;62.92;102950.16;5174363;28;20887;-49
2022/01/20 09:18:19;;;;;;;17.15;6.13;;;;;;;6.62;62.99;102958.94;5158997;28;20441;-45
2022/01/20 09:20:51;;;;;;;17.50;5.28;;;;;;;6.61;62.97;102952.84;5163492;28;20417;-46
2022/01/20 09:23:24;;;;;;;14.75;4.78;;;;;;;6.58;62.96;102958.25;5177046;28;20438;-51
2022/01/20 09:25:56;;;;;;;22.90;6.63;;;;;;;6.51;62.87;102961.22;5180451;28;20894;-49
2022/01/20 09:28:29;;;;;;;17.70;4.68;;;;;;;6.45;62.84;102965.84;5167338;28;20487;-45
2022/01/20 09:31:02;;;;;;;15.45;4.72;;;;;;;6.44;63.06;102969.41;5171450;28;20955;-45
2022/01/20 09:33:36;;;;;;;18.03;4.87;;;;;;;6.54;62.85;102966.34;5171373;28;20415;-48
2022/01/20 09:36:10;;;;;;;16.25;4.38;;;;;;;6.63;62.65;102971.16;5180208;28;20490;-47
2022/01/20 09:38:43;;;;;;;18.73;5.35;;;;;;;6.66;62.42;102971.03;5187601;28;20438;-45
2022/01/20 09:41:16;;;;;;;18.03;5.40;;;;;;;6.67;62.55;102972.72;5188613;28;20804;-47
2022/01/20 09:43:48;;;;;;;20.88;5.75;;;;;;;6.73;62.32;102982.94;5185311;28;20424;-47
2022/01/20 09:46:21;;;;;;;20.75;5.38;;;;;;;6.80;62.16;102984.34;5181321;28;20435;-47
2022/01/20 09:48:54;;;;;;;20.23;4.90;;;;;;;6.91;62.04;102989.94;5182705;28;20940;-50
2022/01/20 09:51:28;;;;;;;18.63;5.30;;;;;;;7.00;62.10;102996.53;5158527;28;20419;-46
2022/01/20 09:54:00;;;;;;;17.40;5.20;;;;;;;7.10;61.94;103007.44;5178862;28;20436;-48
2022/01/20 09:56:33;;;;;;;13.13;4.13;;;;;;;7.06;61.91;102998.00;5180212;28;20510;-47
2022/01/20 09:59:06;;;;;;;18.65;5.60;;;;;;;7.11;61.85;103003.88;5173201;28;20748;-46
2022/01/20 10:01:41;;;;;;;19.15;5.32;;;;;;;7.16;61.88;103030.81;5159668;28;20423;-47
2022/01/20 10:04:22;;;;;;;13.50;4.68;;;;;;;7.19;61.69;103035.91;5158229;28;20953;-51
2022/01/20 10:06:58;;;;;;;12.43;3.60;;;;;;;7.20;61.31;103034.13;5148189;28;20430;-49
2022/01/20 10:09:35;;;;;;;12.50;3.95;;;;;;;7.17;61.39;103029.88;5155029;28;20428;-51
2022/01/20 10:12:10;;;;;;;11.68;3.95;;;;;;;7.27;61.25;103031.13;5161194;28;20419;-48
2022/01/20 10:14:46;;;;;;;19.83;5.70;;;;;;;7.25;61.27;103019.00;5174292;28;20419;-49
2022/01/20 10:17:21;;;;;;;27.42;4.70;;;;;;;7.21;61.12;103035.81;5167321;28;20508;-50
2022/01/20 10:19:58;;;;;;;18.40;4.70;;;;;;;7.21;61.17;103033.19;5172329;28;20451;-50
2022/01/20 10:22:32;;;;;;;16.90;4.05;;;;;;;7.21;61.03;103047.19;5175262;28;20898;-47
2022/01/20 10:25:11;;;;;;;13.57;4.28;;;;;;;7.10;61.09;103028.47;5167195;28;20435;-48
2022/01/20 10:27:48;;;;;;;18.23;5.40;;;;;;;7.14;61.04;103043.16;5170673;28;20433;-46
2022/01/20 10:30:25;;;;;;;12.97;3.93;;;;;;;7.13;60.69;103044.09;5160605;28;20416;-48
2022/01/20 10:33:00;;;;;;;11.30;4.07;;;;;;;7.00;60.73;103040.31;5154802;28;20409;-48
2022/01/20 10:35:36;;;;;;;20.17;5.13;;;;;;;7.07;60.71;103044.38;5161322;28;20515;-46
2022/01/20 10:38:13;;;;;;;18.15;4.63;;;;;;;7.04;60.67;103041.91;5168229;28;20785;-51
2022/01/20 10:40:50;;;;;;;19.95;5.72;;;;;;;7.19;60.47;103048.22;5171385;28;20515;-48
2022/01/20 10:43:26;;;;;;;13.60;4.93;;;;;;;7.33;60.41;103043.97;5176737;28;20518;-49
2022/01/20 10:46:06;;;;;;;21.60;4.63;;;;;;;7.42;60.19;103042.66;5181948;28;20507;-50
2022/01/20 10:48:39;;;;;;;19.98;5.93;;;;;;;7.47;60.12;103047.72;5148968;28;20507;-47
2022/01/20 10:51:18;;;;;;;15.13;4.07;;;;;;;7.36;59.98;103030.66;5159839;28;20950;-46
2022/01/20 10:54:00;;;;;;;14.35;4.72;;;;;;;7.46;60.14;103061.78;5176294;28;20418;-48
2022/01/20 10:56:37;;;;;;;16.23;4.95;;;;;;;7.39;60.28;103056.81;5157402;28;20783;-49
2022/01/20 10:59:09;;;;;;;19.02;4.78;;;;;;;7.43;60.35;103067.19;5156735;28;20894;-49
2022/01/20 11:01:42;;;;;;;16.65;4.75;;;;;;;7.35;60.22;103064.94;5173606;28;20460;-50
2022/01/20 11:04:14;;;;;;;19.77;5.13;;;;;;;7.43;60.14;103067.19;5178135;28;20832;-53
2022/01/20 11:06:53;;;;;;;16.10;4.53;;;;;;;7.41;60.06;103069.06;5163574;28;20452;-48
2022/01/20 11:09:27;;;;;;;12.77;4.40;;;;;;;7.41;59.99;103069.06;5173147;28;20560;-50
2022/01/20 11:12:01;;;;;;;19.08;5.03;;;;;;;7.38;59.95;103070.03;5176771;28;20419;-51
2022/01/20 11:14:35;;;;;;;17.57;5.13;;;;;;;7.44;59.80;103075.00;5167560;28;20436;-51
2022/01/20 11:17:07;;;;;;;23.58;5.07;;;;;;;7.52;60.04;103066.72;5177383;28;20503;-49
2022/01/20 11:19:40;;;;;;;18.38;5.18;;;;;;;7.52;59.54;103069.34;5168378;28;20504;-49
2022/01/20 11:22:16;;;;;;;24.60;4.35;;;;;;;7.47;60.05;103042.47;5171045;28;21002;-50
2022/01/20 11:24:59;;;;;;;16.55;5.25;;;;;;;7.62;59.89;103049.59;5178858;28;20485;-49
2022/01/20 11:27:38;;;;;;;20.55;4.80;;;;;;;7.65;59.63;103061.72;5179014;28;20780;-47
2022/01/20 11:30:21;;;;;;;12.57;4.07;;;;;;;7.66;59.81;103037.97;5167334;28;20788;-49
2022/01/20 11:33:05;;;;;;;14.90;4.72;;;;;;;7.72;59.82;103037.69;5166120;28;20506;-53
2022/01/20 11:35:47;;;;;;;15.13;4.40;;;;;;;7.80;59.85;103030.25;5148352;28;20454;-49
2022/01/20 11:38:23;;;;;;;13.90;4.82;;;;;;;7.86;59.77;103024.66;5179625;28;20526;-48
2022/01/20 11:40:59;;;;;;;13.20;3.80;;;;;;;7.80;59.78;103051.31;5167983;28;20523;-52
2022/01/20 11:43:38;;;;;;;18.80;4.22;;;;;;;7.66;60.01;103037.13;5156262;28;20859;-47
2022/01/20 11:46:14;;;;;;;23.95;6.25;;;;;;;7.54;60.11;103046.47;5172483;28;20712;-51
2022/01/20 11:48:57;;;;;;;24.30;6.32;;;;;;;7.42;60.02;103044.44;5183433;28;20783;-47
2022/01/20 11:51:43;;;;;;;22.20;6.18;;;;;;;7.25;59.93;103027.72;5179520;28;20422;-50
2022/01/20 11:54:32;;;;;;;24.08;5.38;;;;;;;7.21;59.91;103020.91;5173578;28;20420;-46
2022/01/20 11:57:09;;;;;;;17.58;4.85;;;;;;;7.11;60.02;103030.16;5186347;28;20517;-53
2022/01/20 11:59:45;;;;;;;19.50;6.05;;;;;;;7.06;60.14;103019.88;5180270;28;20423;-49
2022/01/20 12:02:28;;;;;;;20.15;5.30;;;;;;;7.00;60.42;103020.19;5176057;28;20850;-49
2022/01/20 12:05:01;;;;;;;18.10;5.00;;;;;;;7.02;60.19;103025.34;5188447;28;20433;-50
2022/01/20 12:07:35;;;;;;;17.67;5.40;;;;;;;7.00;60.58;103016.69;5187582;28;20413;-47
2022/01/20 12:10:12;;;;;;;16.87;4.93;;;;;;;6.98;60.37;103013.28;5175520;28;20442;-51
2022/01/20 12:12:45;;;;;;;20.70;6.78;;;;;;;7.05;60.41;103019.94;5176023;28;20941;-47
2022/01/20 12:15:22;;;;;;;21.63;6.15;;;;;;;7.07;60.26;103018.97;5182015;28;20427;-50
2022/01/20 12:17:58;;;;;;;23.30;6.77;;;;;;;7.14;60.40;103009.00;5177862;28;20446;-50
2022/01/20 12:20:36;;;;;;;29.20;6.35;;;;;;;6.95;60.29;102959.13;5168216;28;21006;-46
2022/01/20 12:23:11;;;;;;;20.35;5.45;;;;;;;7.19;60.33;103001.75;5187339;28;20523;-53
2022/01/20 12:25:48;;;;;;;23.55;6.50;;;;;;;7.23;60.23;103013.81;5185069;28;20508;-52
2022/01/20 12:28:22;;;;;;;19.67;5.18;;;;;;;7.28;60.13;103001.31;5157208;28;20432;-48
2022/01/20 12:31:02;;;;;;;12.57;4.57;;;;;;;7.30;60.18;103035.38;5178478;28;20422;-50
2022/01/20 12:33:40;;;;;;;24.33;6.57;;;;;;;7.26;60.33;103018.06;5160102;28;20480;-50
2022/01/20 12:36:14;;;;;;;22.13;6.97;;;;;;;7.06;60.20;102983.09;5158682;28;21172;-47
2022/01/20 12:38:49;;;;;;;19.80;6.13;;;;;;;7.16;60.36;102991.38;5175209;28;20431;-49
2022/01/20 12:41:25;;;;;;;31.73;7.43;;;;;;;7.14;60.42;102987.97;5181480;28;20428;-48
2022/01/20 12:44:05;;;;;;;19.08;5.80;;;;;;;7.07;60.31;102994.47;5151579;28;20450;-50
2022/01/20 12:46:49;;;;;;;22.98;5.60;;;;;;;7.15;60.38;103010.69;5153552;28;20432;-47
2022/01/20 12:49:21;;;;;;;21.10;6.37;;;;;;;7.16;60.55;103012.41;5146617;28;20423;-47
2022/01/20 12:51:55;;;;;;;20.38;5.45;;;;;;;7.07;60.55;103004.97;5154222;28;20484;-50
2022/01/20 12:54:33;;;;;;;19.38;6.00;;;;;;;7.11;60.65;103014.41;5162219;28;20607;-48